sensor_id;sensor_type;location;lat;lon;timestamp;temperature;humidity
38514;DHT22;24282;48.400;10.808;2023-02-22T00:01:16;4.00;76.70
38514;DHT22;24282;48.400;10.808;2023-02-22T00:04:00;4.00;76.80
38514;DHT22;24282;48.400;10.808;2023-02-22T00:06:27;4.00;76.90
38514;DHT22;24282;48.400;10.808;2023-02-22T00:08:56;3.90;76.80
38514;DHT22;24282;48.400;10.808;2023-02-22T00:11:22;3.90;76.80
38514;DHT22;24282;48.400;10.808;2023-02-22T00:13:48;3.90;77.00
38514;DHT22;24282;48.400;10.808;2023-02-22T00:16:24;3.80;76.90
38514;DHT22;24282;48.400;10.808;2023-02-22T00:18:51;3.80;77.00
38514;DHT22;24282;48.400;10.808;2023-02-22T00:21:17;3.80;77.10
38514;DHT22;24282;48.400;10.808;2023-02-22T00:23:45;3.80;77.10
38514;DHT22;24282;48.400;10.808;2023-02-22T00:26:16;3.80;77.20
38514;DHT22;24282;48.400;10.808;2023-02-22T00:28:46;3.70;77.20
38514;DHT22;24282;48.400;10.808;2023-02-22T00:31:12;3.80;77.20
38514;DHT22;24282;48.400;10.808;2023-02-22T00:33:39;3.70;77.20
38514;DHT22;24282;48.400;10.808;2023-02-22T00:36:06;3.70;77.20
38514;DHT22;24282;48.400;10.808;2023-02-22T00:38:32;3.70;77.20
38514;DHT22;24282;48.400;10.808;2023-02-22T00:40:57;3.70;77.30
38514;DHT22;24282;48.400;10.808;2023-02-22T00:43:23;3.70;77.30
38514;DHT22;24282;48.400;10.808;2023-02-22T00:45:49;3.70;77.40
38514;DHT22;24282;48.400;10.808;2023-02-22T00:48:16;3.60;77.40
38514;DHT22;24282;48.400;10.808;2023-02-22T00:50:43;3.60;77.50
38514;DHT22;24282;48.400;10.808;2023-02-22T00:53:10;3.60;77.50
38514;DHT22;24282;48.400;10.808;2023-02-22T00:55:36;3.60;77.60
38514;DHT22;24282;48.400;10.808;2023-02-22T00:58:03;3.60;77.50
38514;DHT22;24282;48.400;10.808;2023-02-22T01:00:33;3.50;77.50
38514;DHT22;24282;48.400;10.808;2023-02-22T01:02:59;3.60;77.60
38514;DHT22;24282;48.400;10.808;2023-02-22T01:05:27;3.60;77.60
38514;DHT22;24282;48.400;10.808;2023-02-22T01:07:54;3.50;77.40
38514;DHT22;24282;48.400;10.808;2023-02-22T01:10:22;3.50;77.30
38514;DHT22;24282;48.400;10.808;2023-02-22T01:12:49;3.50;77.20
38514;DHT22;24282;48.400;10.808;2023-02-22T01:15:19;3.50;77.20
38514;DHT22;24282;48.400;10.808;2023-02-22T01:17:49;3.50;77.10
38514;DHT22;24282;48.400;10.808;2023-02-22T01:20:15;3.50;76.90
38514;DHT22;24282;48.400;10.808;2023-02-22T01:22:46;3.40;77.00
38514;DHT22;24282;48.400;10.808;2023-02-22T01:25:17;3.30;77.10
38514;DHT22;24282;48.400;10.808;2023-02-22T01:27:43;3.30;77.20
38514;DHT22;24282;48.400;10.808;2023-02-22T01:30:10;3.30;77.30
38514;DHT22;24282;48.400;10.808;2023-02-22T01:32:38;3.30;77.50
38514;DHT22;24282;48.400;10.808;2023-02-22T01:35:07;3.20;77.60
38514;DHT22;24282;48.400;10.808;2023-02-22T01:37:34;3.20;77.70
38514;DHT22;24282;48.400;10.808;2023-02-22T01:40:00;3.20;77.70
38514;DHT22;24282;48.400;10.808;2023-02-22T01:42:26;3.20;77.80
38514;DHT22;24282;48.400;10.808;2023-02-22T01:51:08;3.10;77.80
38514;DHT22;24282;48.400;10.808;2023-02-22T01:54:02;3.10;77.90
38514;DHT22;24282;48.400;10.808;2023-02-22T01:56:34;3.10;78.00
38514;DHT22;24282;48.400;10.808;2023-02-22T01:59:05;3.10;78.00
38514;DHT22;24282;48.400;10.808;2023-02-22T02:01:32;3.10;78.00
38514;DHT22;24282;48.400;10.808;2023-02-22T02:04:04;3.00;77.90
38514;DHT22;24282;48.400;10.808;2023-02-22T02:06:32;3.00;77.90
38514;DHT22;24282;48.400;10.808;2023-02-22T02:09:34;3.00;77.80
38514;DHT22;24282;48.400;10.808;2023-02-22T02:12:02;3.00;78.00
38514;DHT22;24282;48.400;10.808;2023-02-22T02:14:30;3.00;78.10
38514;DHT22;24282;48.400;10.808;2023-02-22T02:16:59;3.00;78.10
38514;DHT22;24282;48.400;10.808;2023-02-22T02:19:59;2.90;78.00
38514;DHT22;24282;48.400;10.808;2023-02-22T02:25:29;2.90;78.20
38514;DHT22;24282;48.400;10.808;2023-02-22T02:31:23;2.80;78.40
38514;DHT22;24282;48.400;10.808;2023-02-22T02:34:01;2.80;78.40
38514;DHT22;24282;48.400;10.808;2023-02-22T02:36:34;2.80;78.50
38514;DHT22;24282;48.400;10.808;2023-02-22T02:39:05;2.80;78.60
38514;DHT22;24282;48.400;10.808;2023-02-22T02:41:38;2.90;78.70
38514;DHT22;24282;48.400;10.808;2023-02-22T02:47:00;3.00;78.90
38514;DHT22;24282;48.400;10.808;2023-02-22T02:49:38;2.90;78.80
38514;DHT22;24282;48.400;10.808;2023-02-22T02:52:05;2.90;78.80
38514;DHT22;24282;48.400;10.808;2023-02-22T02:54:32;2.90;78.70
38514;DHT22;24282;48.400;10.808;2023-02-22T02:56:58;3.00;78.70
38514;DHT22;24282;48.400;10.808;2023-02-22T02:59:25;3.00;78.60
38514;DHT22;24282;48.400;10.808;2023-02-22T03:12:46;2.90;78.60
38514;DHT22;24282;48.400;10.808;2023-02-22T03:15:43;2.90;78.60
38514;DHT22;24282;48.400;10.808;2023-02-22T03:24:49;2.80;78.60
38514;DHT22;24282;48.400;10.808;2023-02-22T03:27:01;2.80;78.60
38514;DHT22;24282;48.400;10.808;2023-02-22T03:29:33;2.80;78.70
38514;DHT22;24282;48.400;10.808;2023-02-22T03:32:06;2.80;78.80
38514;DHT22;24282;48.400;10.808;2023-02-22T03:34:44;2.70;78.80
38514;DHT22;24282;48.400;10.808;2023-02-22T03:37:28;2.70;78.90
38514;DHT22;24282;48.400;10.808;2023-02-22T03:39:59;2.80;79.00
38514;DHT22;24282;48.400;10.808;2023-02-22T03:42:32;2.70;78.90
38514;DHT22;24282;48.400;10.808;2023-02-22T03:45:01;2.70;78.90
38514;DHT22;24282;48.400;10.808;2023-02-22T03:47:41;2.70;78.90
38514;DHT22;24282;48.400;10.808;2023-02-22T03:50:14;2.70;78.80
38514;DHT22;24282;48.400;10.808;2023-02-22T03:52:41;2.60;78.90
38514;DHT22;24282;48.400;10.808;2023-02-22T03:55:14;2.70;78.80
38514;DHT22;24282;48.400;10.808;2023-02-22T03:57:49;2.60;78.70
38514;DHT22;24282;48.400;10.808;2023-02-22T04:00:19;2.60;78.80
38514;DHT22;24282;48.400;10.808;2023-02-22T04:02:46;2.60;78.70
38514;DHT22;24282;48.400;10.808;2023-02-22T04:05:17;2.50;78.80
38514;DHT22;24282;48.400;10.808;2023-02-22T04:07:43;2.60;78.90
38514;DHT22;24282;48.400;10.808;2023-02-22T04:10:11;2.50;78.90
38514;DHT22;24282;48.400;10.808;2023-02-22T04:12:37;2.50;79.00
38514;DHT22;24282;48.400;10.808;2023-02-22T04:15:06;2.50;79.00
38514;DHT22;24282;48.400;10.808;2023-02-22T04:17:32;2.50;79.10
38514;DHT22;24282;48.400;10.808;2023-02-22T04:19:59;2.50;79.20
38514;DHT22;24282;48.400;10.808;2023-02-22T04:22:29;2.50;79.20
38514;DHT22;24282;48.400;10.808;2023-02-22T04:24:54;2.50;79.20
38514;DHT22;24282;48.400;10.808;2023-02-22T04:27:20;2.50;79.20
38514;DHT22;24282;48.400;10.808;2023-02-22T04:29:46;2.40;79.20
38514;DHT22;24282;48.400;10.808;2023-02-22T04:32:12;2.40;79.30
38514;DHT22;24282;48.400;10.808;2023-02-22T04:34:38;2.40;79.50
38514;DHT22;24282;48.400;10.808;2023-02-22T04:37:04;2.40;79.80
38514;DHT22;24282;48.400;10.808;2023-02-22T04:39:29;2.30;79.90
38514;DHT22;24282;48.400;10.808;2023-02-22T04:41:55;2.40;80.00
38514;DHT22;24282;48.400;10.808;2023-02-22T04:44:21;2.40;80.00
38514;DHT22;24282;48.400;10.808;2023-02-22T04:46:47;2.40;80.00
38514;DHT22;24282;48.400;10.808;2023-02-22T04:49:14;2.40;80.20
38514;DHT22;24282;48.400;10.808;2023-02-22T04:51:41;2.40;80.30
38514;DHT22;24282;48.400;10.808;2023-02-22T04:54:10;2.40;80.50
38514;DHT22;24282;48.400;10.808;2023-02-22T04:56:42;2.50;80.40
38514;DHT22;24282;48.400;10.808;2023-02-22T04:59:08;2.40;80.60
38514;DHT22;24282;48.400;10.808;2023-02-22T05:01:35;2.40;80.60
38514;DHT22;24282;48.400;10.808;2023-02-22T05:04:03;2.40;80.30
38514;DHT22;24282;48.400;10.808;2023-02-22T05:06:29;2.50;80.30
38514;DHT22;24282;48.400;10.808;2023-02-22T05:08:54;2.40;80.20
38514;DHT22;24282;48.400;10.808;2023-02-22T05:11:20;2.40;80.00
38514;DHT22;24282;48.400;10.808;2023-02-22T05:13:46;2.50;79.70
38514;DHT22;24282;48.400;10.808;2023-02-22T05:16:12;2.50;79.50
38514;DHT22;24282;48.400;10.808;2023-02-22T05:18:38;2.40;79.40
38514;DHT22;24282;48.400;10.808;2023-02-22T05:21:04;2.40;79.40
38514;DHT22;24282;48.400;10.808;2023-02-22T05:23:31;2.40;79.40
38514;DHT22;24282;48.400;10.808;2023-02-22T05:25:57;2.40;79.50
38514;DHT22;24282;48.400;10.808;2023-02-22T05:28:23;2.40;79.60
38514;DHT22;24282;48.400;10.808;2023-02-22T05:30:49;2.30;79.80
38514;DHT22;24282;48.400;10.808;2023-02-22T05:33:15;2.30;79.90
38514;DHT22;24282;48.400;10.808;2023-02-22T05:35:41;2.30;79.90
38514;DHT22;24282;48.400;10.808;2023-02-22T05:38:09;2.30;79.90
38514;DHT22;24282;48.400;10.808;2023-02-22T05:40:40;2.30;79.80
38514;DHT22;24282;48.400;10.808;2023-02-22T05:43:06;2.30;79.60
38514;DHT22;24282;48.400;10.808;2023-02-22T05:45:32;2.30;79.40
38514;DHT22;24282;48.400;10.808;2023-02-22T05:47:58;2.30;79.30
38514;DHT22;24282;48.400;10.808;2023-02-22T05:50:24;2.30;79.20
38514;DHT22;24282;48.400;10.808;2023-02-22T05:52:51;2.20;79.10
38514;DHT22;24282;48.400;10.808;2023-02-22T05:55:18;2.30;79.10
38514;DHT22;24282;48.400;10.808;2023-02-22T05:57:45;2.20;79.10
38514;DHT22;24282;48.400;10.808;2023-02-22T06:00:21;2.20;79.10
38514;DHT22;24282;48.400;10.808;2023-02-22T06:03:02;2.20;79.30
38514;DHT22;24282;48.400;10.808;2023-02-22T06:05:28;2.20;79.40
38514;DHT22;24282;48.400;10.808;2023-02-22T06:07:55;2.10;79.30
38514;DHT22;24282;48.400;10.808;2023-02-22T06:10:22;2.10;79.10
38514;DHT22;24282;48.400;10.808;2023-02-22T06:12:49;2.10;79.00
38514;DHT22;24282;48.400;10.808;2023-02-22T06:15:16;2.00;79.10
38514;DHT22;24282;48.400;10.808;2023-02-22T06:17:42;2.00;79.10
38514;DHT22;24282;48.400;10.808;2023-02-22T06:20:11;2.00;79.20
38514;DHT22;24282;48.400;10.808;2023-02-22T06:22:37;2.00;79.20
38514;DHT22;24282;48.400;10.808;2023-02-22T06:25:06;2.00;79.30
38514;DHT22;24282;48.400;10.808;2023-02-22T06:27:32;1.90;79.30
38514;DHT22;24282;48.400;10.808;2023-02-22T06:29:59;1.90;79.30
38514;DHT22;24282;48.400;10.808;2023-02-22T06:32:26;1.90;79.40
38514;DHT22;24282;48.400;10.808;2023-02-22T06:34:51;1.90;79.60
38514;DHT22;24282;48.400;10.808;2023-02-22T06:37:17;1.90;79.70
38514;DHT22;24282;48.400;10.808;2023-02-22T06:39:43;1.90;79.70
38514;DHT22;24282;48.400;10.808;2023-02-22T06:42:09;1.90;79.70
38514;DHT22;24282;48.400;10.808;2023-02-22T06:44:34;1.90;80.00
38514;DHT22;24282;48.400;10.808;2023-02-22T06:47:00;1.90;80.10
38514;DHT22;24282;48.400;10.808;2023-02-22T06:49:27;1.90;80.20
38514;DHT22;24282;48.400;10.808;2023-02-22T06:51:53;1.90;80.30
38514;DHT22;24282;48.400;10.808;2023-02-22T06:54:20;2.00;80.30
38514;DHT22;24282;48.400;10.808;2023-02-22T06:56:46;2.00;80.30
38514;DHT22;24282;48.400;10.808;2023-02-22T06:59:12;2.00;80.20
38514;DHT22;24282;48.400;10.808;2023-02-22T07:01:41;2.00;80.20
38514;DHT22;24282;48.400;10.808;2023-02-22T07:04:07;2.00;80.00
38514;DHT22;24282;48.400;10.808;2023-02-22T07:06:33;2.00;80.00
38514;DHT22;24282;48.400;10.808;2023-02-22T07:08:59;2.00;80.00
38514;DHT22;24282;48.400;10.808;2023-02-22T07:11:25;2.10;80.10
38514;DHT22;24282;48.400;10.808;2023-02-22T07:13:51;2.10;80.10
38514;DHT22;24282;48.400;10.808;2023-02-22T07:16:17;2.10;80.10
38514;DHT22;24282;48.400;10.808;2023-02-22T07:18:43;2.20;80.20
38514;DHT22;24282;48.400;10.808;2023-02-22T07:21:09;2.10;80.30
38514;DHT22;24282;48.400;10.808;2023-02-22T07:23:35;2.20;80.50
38514;DHT22;24282;48.400;10.808;2023-02-22T07:26:03;2.20;80.50
38514;DHT22;24282;48.400;10.808;2023-02-22T07:28:29;2.20;80.60
38514;DHT22;24282;48.400;10.808;2023-02-22T07:30:55;2.30;80.70
38514;DHT22;24282;48.400;10.808;2023-02-22T07:33:21;2.30;80.70
38514;DHT22;24282;48.400;10.808;2023-02-22T07:35:49;2.30;80.70
38514;DHT22;24282;48.400;10.808;2023-02-22T07:38:16;2.40;80.90
38514;DHT22;24282;48.400;10.808;2023-02-22T07:40:43;2.50;81.10
38514;DHT22;24282;48.400;10.808;2023-02-22T07:43:21;2.50;81.30
38514;DHT22;24282;48.400;10.808;2023-02-22T07:45:49;2.50;81.60
38514;DHT22;24282;48.400;10.808;2023-02-22T07:48:16;2.60;81.70
38514;DHT22;24282;48.400;10.808;2023-02-22T07:50:42;2.70;81.80
38514;DHT22;24282;48.400;10.808;2023-02-22T07:53:18;2.70;81.70
38514;DHT22;24282;48.400;10.808;2023-02-22T07:55:45;2.80;81.80
38514;DHT22;24282;48.400;10.808;2023-02-22T07:58:14;2.80;81.80
38514;DHT22;24282;48.400;10.808;2023-02-22T08:00:40;2.90;81.90
38514;DHT22;24282;48.400;10.808;2023-02-22T08:03:11;2.90;82.10
38514;DHT22;24282;48.400;10.808;2023-02-22T08:05:39;3.00;82.10
38514;DHT22;24282;48.400;10.808;2023-02-22T08:08:05;3.00;82.10
38514;DHT22;24282;48.400;10.808;2023-02-22T08:10:32;3.10;82.10
38514;DHT22;24282;48.400;10.808;2023-02-22T08:13:00;3.20;82.20
38514;DHT22;24282;48.400;10.808;2023-02-22T08:15:30;3.20;82.20
38514;DHT22;24282;48.400;10.808;2023-02-22T08:17:57;3.40;82.30
38514;DHT22;24282;48.400;10.808;2023-02-22T08:20:24;3.40;82.40
38514;DHT22;24282;48.400;10.808;2023-02-22T08:22:50;3.50;82.40
38514;DHT22;24282;48.400;10.808;2023-02-22T08:25:18;3.50;82.50
38514;DHT22;24282;48.400;10.808;2023-02-22T08:27:45;3.70;82.70
38514;DHT22;24282;48.400;10.808;2023-02-22T08:30:21;3.80;82.70
38514;DHT22;24282;48.400;10.808;2023-02-22T08:32:50;3.80;82.70
38514;DHT22;24282;48.400;10.808;2023-02-22T08:35:18;3.90;82.70
38514;DHT22;24282;48.400;10.808;2023-02-22T08:37:47;4.00;82.80
38514;DHT22;24282;48.400;10.808;2023-02-22T08:40:13;4.10;82.70
38514;DHT22;24282;48.400;10.808;2023-02-22T08:42:39;4.20;82.80
38514;DHT22;24282;48.400;10.808;2023-02-22T08:45:05;4.30;83.00
38514;DHT22;24282;48.400;10.808;2023-02-22T08:47:31;4.50;82.80
38514;DHT22;24282;48.400;10.808;2023-02-22T08:49:56;4.60;82.80
38514;DHT22;24282;48.400;10.808;2023-02-22T08:52:22;4.80;82.60
38514;DHT22;24282;48.400;10.808;2023-02-22T08:54:48;5.00;82.10
38514;DHT22;24282;48.400;10.808;2023-02-22T08:57:14;5.20;81.00
38514;DHT22;24282;48.400;10.808;2023-02-22T08:59:40;5.50;79.90
38514;DHT22;24282;48.400;10.808;2023-02-22T09:02:18;5.90;80.20
38514;DHT22;24282;48.400;10.808;2023-02-22T09:04:45;6.20;79.10
38514;DHT22;24282;48.400;10.808;2023-02-22T09:07:11;6.50;75.80
38514;DHT22;24282;48.400;10.808;2023-02-22T09:09:37;6.90;75.00
38514;DHT22;24282;48.400;10.808;2023-02-22T09:12:03;7.20;73.60
38514;DHT22;24282;48.400;10.808;2023-02-22T09:14:29;7.40;71.40
38514;DHT22;24282;48.400;10.808;2023-02-22T09:16:55;7.70;70.10
38514;DHT22;24282;48.400;10.808;2023-02-22T09:19:21;7.80;69.00
38514;DHT22;24282;48.400;10.808;2023-02-22T09:21:57;7.90;69.10
38514;DHT22;24282;48.400;10.808;2023-02-22T09:24:23;8.00;67.90
38514;DHT22;24282;48.400;10.808;2023-02-22T09:26:49;8.00;67.90
38514;DHT22;24282;48.400;10.808;2023-02-22T09:29:25;8.00;68.10
38514;DHT22;24282;48.400;10.808;2023-02-22T09:31:53;8.00;67.50
38514;DHT22;24282;48.400;10.808;2023-02-22T09:34:21;8.00;67.70
38514;DHT22;24282;48.400;10.808;2023-02-22T09:36:48;8.00;68.10
38514;DHT22;24282;48.400;10.808;2023-02-22T09:39:16;8.00;68.00
38514;DHT22;24282;48.400;10.808;2023-02-22T09:42:10;8.00;67.90
38514;DHT22;24282;48.400;10.808;2023-02-22T09:47:13;8.00;67.90
38514;DHT22;24282;48.400;10.808;2023-02-22T09:49:53;8.00;68.30
38514;DHT22;24282;48.400;10.808;2023-02-22T09:52:36;8.00;68.40
38514;DHT22;24282;48.400;10.808;2023-02-22T09:55:35;8.00;68.70
38514;DHT22;24282;48.400;10.808;2023-02-22T09:58:09;8.00;69.10
38514;DHT22;24282;48.400;10.808;2023-02-22T10:00:36;8.00;69.50
38514;DHT22;24282;48.400;10.808;2023-02-22T10:03:37;8.00;69.70
38514;DHT22;24282;48.400;10.808;2023-02-22T10:06:11;8.10;70.10
38514;DHT22;24282;48.400;10.808;2023-02-22T10:08:40;8.20;69.80
38514;DHT22;24282;48.400;10.808;2023-02-22T10:19:01;8.50;69.40
38514;DHT22;24282;48.400;10.808;2023-02-22T10:21:54;8.50;69.30
38514;DHT22;24282;48.400;10.808;2023-02-22T10:24:46;8.60;68.60
38514;DHT22;24282;48.400;10.808;2023-02-22T10:30:01;8.70;68.20
38514;DHT22;24282;48.400;10.808;2023-02-22T10:32:34;8.70;68.20
38514;DHT22;24282;48.400;10.808;2023-02-22T10:35:08;8.70;68.70
38514;DHT22;24282;48.400;10.808;2023-02-22T10:37:40;8.80;67.80
38514;DHT22;24282;48.400;10.808;2023-02-22T10:40:17;8.80;68.00
38514;DHT22;24282;48.400;10.808;2023-02-22T10:42:45;8.90;69.00
38514;DHT22;24282;48.400;10.808;2023-02-22T10:45:22;9.00;68.50
38514;DHT22;24282;48.400;10.808;2023-02-22T10:47:50;9.00;68.00
38514;DHT22;24282;48.400;10.808;2023-02-22T10:50:19;9.10;67.80
38514;DHT22;24282;48.400;10.808;2023-02-22T10:52:45;9.20;67.50
38514;DHT22;24282;48.400;10.808;2023-02-22T10:55:14;9.40;66.80
38514;DHT22;24282;48.400;10.808;2023-02-22T10:57:43;9.50;67.40
38514;DHT22;24282;48.400;10.808;2023-02-22T11:00:21;9.60;66.80
38514;DHT22;24282;48.400;10.808;2023-02-22T11:05:39;9.80;65.20
38514;DHT22;24282;48.400;10.808;2023-02-22T11:08:26;9.90;64.10
38514;DHT22;24282;48.400;10.808;2023-02-22T11:10:55;9.90;64.10
38514;DHT22;24282;48.400;10.808;2023-02-22T11:13:37;9.90;64.10
38514;DHT22;24282;48.400;10.808;2023-02-22T11:16:30;10.00;64.30
38514;DHT22;24282;48.400;10.808;2023-02-22T11:19:32;10.00;64.80
38514;DHT22;24282;48.400;10.808;2023-02-22T11:22:11;10.00;64.60
38514;DHT22;24282;48.400;10.808;2023-02-22T11:24:49;10.10;64.20
38514;DHT22;24282;48.400;10.808;2023-02-22T11:27:42;10.20;64.30
38514;DHT22;24282;48.400;10.808;2023-02-22T11:30:19;10.30;64.10
38514;DHT22;24282;48.400;10.808;2023-02-22T11:32:57;10.40;63.60
38514;DHT22;24282;48.400;10.808;2023-02-22T11:35:34;10.50;62.80
38514;DHT22;24282;48.400;10.808;2023-02-22T11:38:15;10.70;62.50
38514;DHT22;24282;48.400;10.808;2023-02-22T11:40:41;10.90;62.20
38514;DHT22;24282;48.400;10.808;2023-02-22T11:43:18;11.00;60.90
38514;DHT22;24282;48.400;10.808;2023-02-22T11:46:01;11.30;58.90
38514;DHT22;24282;48.400;10.808;2023-02-22T11:48:39;11.30;59.00
38514;DHT22;24282;48.400;10.808;2023-02-22T11:51:12;11.40;58.60
38514;DHT22;24282;48.400;10.808;2023-02-22T11:56:34;11.70;58.30
38514;DHT22;24282;48.400;10.808;2023-02-22T11:59:14;11.90;57.20
38514;DHT22;24282;48.400;10.808;2023-02-22T12:01:53;12.00;56.50
38514;DHT22;24282;48.400;10.808;2023-02-22T12:04:43;12.30;55.10
38514;DHT22;24282;48.400;10.808;2023-02-22T12:07:23;12.60;54.10
38514;DHT22;24282;48.400;10.808;2023-02-22T12:10:21;12.90;50.90
38514;DHT22;24282;48.400;10.808;2023-02-22T12:21:30;13.80;49.60
38514;DHT22;24282;48.400;10.808;2023-02-22T12:24:06;14.00;48.50
38514;DHT22;24282;48.400;10.808;2023-02-22T12:26:39;14.10;47.40
38514;DHT22;24282;48.400;10.808;2023-02-22T12:34:43;14.50;45.70
38514;DHT22;24282;48.400;10.808;2023-02-22T12:37:21;14.50;45.80
38514;DHT22;24282;48.400;10.808;2023-02-22T12:43:09;14.30;47.80
38514;DHT22;24282;48.400;10.808;2023-02-22T12:50:48;14.00;46.10
38514;DHT22;24282;48.400;10.808;2023-02-22T12:53:33;13.90;46.60
38514;DHT22;24282;48.400;10.808;2023-02-22T13:01:33;13.90;46.40
38514;DHT22;24282;48.400;10.808;2023-02-22T13:04:01;13.90;46.70
38514;DHT22;24282;48.400;10.808;2023-02-22T13:06:43;13.90;46.00
38514;DHT22;24282;48.400;10.808;2023-02-22T13:27:36;13.50;51.80
38514;DHT22;24282;48.400;10.808;2023-02-22T13:30:05;13.40;51.30
38514;DHT22;24282;48.400;10.808;2023-02-22T13:33:06;13.40;50.70
38514;DHT22;24282;48.400;10.808;2023-02-22T13:39:07;13.70;50.10
38514;DHT22;24282;48.400;10.808;2023-02-22T13:49:57;14.00;49.00
38514;DHT22;24282;48.400;10.808;2023-02-22T13:52:29;14.10;49.00
38514;DHT22;24282;48.400;10.808;2023-02-22T13:55:01;14.00;49.40
38514;DHT22;24282;48.400;10.808;2023-02-22T13:57:42;14.00;50.10
38514;DHT22;24282;48.400;10.808;2023-02-22T14:10:52;13.60;51.00
38514;DHT22;24282;48.400;10.808;2023-02-22T14:13:22;13.60;51.10
38514;DHT22;24282;48.400;10.808;2023-02-22T14:18:43;13.40;51.30
38514;DHT22;24282;48.400;10.808;2023-02-22T14:21:15;13.40;51.80
38514;DHT22;24282;48.400;10.808;2023-02-22T14:23:47;13.30;52.00
38514;DHT22;24282;48.400;10.808;2023-02-22T14:34:43;13.20;53.60
38514;DHT22;24282;48.400;10.808;2023-02-22T14:37:23;13.20;53.60
38514;DHT22;24282;48.400;10.808;2023-02-22T14:40:07;13.20;53.90
38514;DHT22;24282;48.400;10.808;2023-02-22T14:45:28;13.10;54.50
38514;DHT22;24282;48.400;10.808;2023-02-22T14:48:10;13.00;54.40
38514;DHT22;24282;48.400;10.808;2023-02-22T14:58:19;12.90;54.30
38514;DHT22;24282;48.400;10.808;2023-02-22T15:00:48;12.90;54.20
38514;DHT22;24282;48.400;10.808;2023-02-22T15:03:30;12.90;53.60
38514;DHT22;24282;48.400;10.808;2023-02-22T15:06:12;13.00;53.40
38514;DHT22;24282;48.400;10.808;2023-02-22T15:08:40;13.00;53.10
38514;DHT22;24282;48.400;10.808;2023-02-22T15:11:27;12.90;53.50
38514;DHT22;24282;48.400;10.808;2023-02-22T15:13:58;12.90;54.20
38514;DHT22;24282;48.400;10.808;2023-02-22T15:16:27;12.90;54.40
38514;DHT22;24282;48.400;10.808;2023-02-22T15:18:59;12.90;54.80
38514;DHT22;24282;48.400;10.808;2023-02-22T15:21:29;12.90;55.20
38514;DHT22;24282;48.400;10.808;2023-02-22T15:24:03;12.90;55.30
38514;DHT22;24282;48.400;10.808;2023-02-22T15:29:06;12.80;55.90
38514;DHT22;24282;48.400;10.808;2023-02-22T15:31:35;12.80;55.80
38514;DHT22;24282;48.400;10.808;2023-02-22T15:36:40;12.70;56.00
38514;DHT22;24282;48.400;10.808;2023-02-22T15:41:59;12.60;56.50
38514;DHT22;24282;48.400;10.808;2023-02-22T15:44:25;12.60;57.30
38514;DHT22;24282;48.400;10.808;2023-02-22T15:46:51;12.50;57.40
38514;DHT22;24282;48.400;10.808;2023-02-22T15:49:21;12.50;56.90
38514;DHT22;24282;48.400;10.808;2023-02-22T15:51:59;12.50;56.90
38514;DHT22;24282;48.400;10.808;2023-02-22T15:54:26;12.40;57.30
38514;DHT22;24282;48.400;10.808;2023-02-22T15:56:52;12.40;57.70
38514;DHT22;24282;48.400;10.808;2023-02-22T15:59:21;12.40;57.70
38514;DHT22;24282;48.400;10.808;2023-02-22T16:01:53;12.30;58.00
38514;DHT22;24282;48.400;10.808;2023-02-22T16:04:25;12.30;58.00
38514;DHT22;24282;48.400;10.808;2023-02-22T16:07:06;12.20;59.10
38514;DHT22;24282;48.400;10.808;2023-02-22T16:09:47;12.20;60.40
38514;DHT22;24282;48.400;10.808;2023-02-22T16:14:47;12.10;60.60
38514;DHT22;24282;48.400;10.808;2023-02-22T16:17:38;12.00;60.90
38514;DHT22;24282;48.400;10.808;2023-02-22T16:22:44;11.90;61.20
38514;DHT22;24282;48.400;10.808;2023-02-22T16:25:29;11.90;61.50
38514;DHT22;24282;48.400;10.808;2023-02-22T16:28:03;11.80;62.10
38514;DHT22;24282;48.400;10.808;2023-02-22T16:30:35;11.70;62.90
38514;DHT22;24282;48.400;10.808;2023-02-22T16:33:06;11.60;63.50
38514;DHT22;24282;48.400;10.808;2023-02-22T16:35:41;11.60;64.50
38514;DHT22;24282;48.400;10.808;2023-02-22T16:38:17;11.50;64.60
38514;DHT22;24282;48.400;10.808;2023-02-22T16:40:52;11.40;64.90
38514;DHT22;24282;48.400;10.808;2023-02-22T16:43:26;11.40;65.30
38514;DHT22;24282;48.400;10.808;2023-02-22T16:45:54;11.30;65.60
38514;DHT22;24282;48.400;10.808;2023-02-22T16:48:27;11.20;65.80
38514;DHT22;24282;48.400;10.808;2023-02-22T16:51:19;11.10;66.00
38514;DHT22;24282;48.400;10.808;2023-02-22T16:53:46;11.10;66.40
38514;DHT22;24282;48.400;10.808;2023-02-22T16:56:15;11.00;67.10
38514;DHT22;24282;48.400;10.808;2023-02-22T16:58:43;10.90;67.30
38514;DHT22;24282;48.400;10.808;2023-02-22T17:01:10;10.90;67.70
38514;DHT22;24282;48.400;10.808;2023-02-22T17:03:37;10.80;67.80
38514;DHT22;24282;48.400;10.808;2023-02-22T17:06:03;10.80;68.30
38514;DHT22;24282;48.400;10.808;2023-02-22T17:08:29;10.70;68.80
38514;DHT22;24282;48.400;10.808;2023-02-22T17:10:57;10.60;69.40
38514;DHT22;24282;48.400;10.808;2023-02-22T17:13:26;10.50;69.70
38514;DHT22;24282;48.400;10.808;2023-02-22T17:15:52;10.50;70.00
38514;DHT22;24282;48.400;10.808;2023-02-22T17:18:22;10.40;70.00
38514;DHT22;24282;48.400;10.808;2023-02-22T17:20:49;10.40;69.80
38514;DHT22;24282;48.400;10.808;2023-02-22T17:23:16;10.30;69.70
38514;DHT22;24282;48.400;10.808;2023-02-22T17:25:46;10.30;69.70
38514;DHT22;24282;48.400;10.808;2023-02-22T17:28:13;10.20;69.90
38514;DHT22;24282;48.400;10.808;2023-02-22T17:30:39;10.10;69.60
38514;DHT22;24282;48.400;10.808;2023-02-22T17:33:07;10.10;69.40
38514;DHT22;24282;48.400;10.808;2023-02-22T17:35:36;10.00;69.30
38514;DHT22;24282;48.400;10.808;2023-02-22T17:38:02;10.00;69.30
38514;DHT22;24282;48.400;10.808;2023-02-22T17:40:35;10.00;69.40
38514;DHT22;24282;48.400;10.808;2023-02-22T17:43:02;9.90;69.80
38514;DHT22;24282;48.400;10.808;2023-02-22T17:45:29;9.90;69.90
38514;DHT22;24282;48.400;10.808;2023-02-22T17:47:55;9.80;69.90
38514;DHT22;24282;48.400;10.808;2023-02-22T17:50:24;9.70;69.90
38514;DHT22;24282;48.400;10.808;2023-02-22T17:52:50;9.70;70.00
38514;DHT22;24282;48.400;10.808;2023-02-22T17:55:20;9.60;70.00
38514;DHT22;24282;48.400;10.808;2023-02-22T17:57:47;9.50;70.40
38514;DHT22;24282;48.400;10.808;2023-02-22T18:00:17;9.50;70.70
38514;DHT22;24282;48.400;10.808;2023-02-22T18:02:51;9.40;70.90
38514;DHT22;24282;48.400;10.808;2023-02-22T18:05:17;9.40;71.20
38514;DHT22;24282;48.400;10.808;2023-02-22T18:07:44;9.40;71.40
38514;DHT22;24282;48.400;10.808;2023-02-22T18:10:10;9.20;71.70
38514;DHT22;24282;48.400;10.808;2023-02-22T18:12:40;9.20;71.80
38514;DHT22;24282;48.400;10.808;2023-02-22T18:15:08;9.10;71.90
38514;DHT22;24282;48.400;10.808;2023-02-22T18:17:36;9.10;72.20
38514;DHT22;24282;48.400;10.808;2023-02-22T18:20:05;9.10;72.40
38514;DHT22;24282;48.400;10.808;2023-02-22T18:22:42;9.00;72.50
38514;DHT22;24282;48.400;10.808;2023-02-22T18:25:09;8.90;72.50